sensor_id;sensor_type;location;lat;lon;timestamp;temperature;humidity
19168;DHT22;9716;53.114;18.040;2023-02-24T00:01:55;8.00;99.90
19168;DHT22;9716;53.114;18.040;2023-02-24T00:04:29;8.00;99.90
19168;DHT22;9716;53.114;18.040;2023-02-24T00:06:58;8.00;99.90
19168;DHT22;9716;53.114;18.040;2023-02-24T00:09:29;8.00;99.90
19168;DHT22;9716;53.114;18.040;2023-02-24T00:12:02;8.00;99.90
19168;DHT22;9716;53.114;18.040;2023-02-24T00:14:33;8.00;99.90
19168;DHT22;9716;53.114;18.040;2023-02-24T00:17:02;7.90;99.90
19168;DHT22;9716;53.114;18.040;2023-02-24T00:19:32;7.90;99.90
19168;DHT22;9716;53.114;18.040;2023-02-24T00:22:02;7.90;99.90
19168;DHT22;9716;53.114;18.040;2023-02-24T00:24:32;7.90;99.90
19168;DHT22;9716;53.114;18.040;2023-02-24T00:27:03;7.90;99.90
19168;DHT22;9716;53.114;18.040;2023-02-24T00:29:35;7.90;99.90
19168;DHT22;9716;53.114;18.040;2023-02-24T00:32:06;7.90;99.90
19168;DHT22;9716;53.114;18.040;2023-02-24T00:34:40;7.90;99.90
19168;DHT22;9716;53.114;18.040;2023-02-24T00:37:09;7.90;99.90
19168;DHT22;9716;53.114;18.040;2023-02-24T00:39:38;7.90;99.90
19168;DHT22;9716;53.114;18.040;2023-02-24T00:42:09;7.90;99.90
19168;DHT22;9716;53.114;18.040;2023-02-24T00:44:40;7.90;99.90
19168;DHT22;9716;53.114;18.040;2023-02-24T00:47:09;7.80;99.90
19168;DHT22;9716;53.114;18.040;2023-02-24T00:49:39;7.80;99.90
19168;DHT22;9716;53.114;18.040;2023-02-24T00:52:10;7.80;99.90
19168;DHT22;9716;53.114;18.040;2023-02-24T00:54:40;7.80;99.90
19168;DHT22;9716;53.114;18.040;2023-02-24T00:57:10;7.80;99.90
19168;DHT22;9716;53.114;18.040;2023-02-24T00:59:39;7.80;99.90
19168;DHT22;9716;53.114;18.040;2023-02-24T01:02:08;7.80;99.90
19168;DHT22;9716;53.114;18.040;2023-02-24T01:04:37;7.80;99.90
19168;DHT22;9716;53.114;18.040;2023-02-24T01:07:06;7.80;99.90
19168;DHT22;9716;53.114;18.040;2023-02-24T01:09:39;7.80;99.90
19168;DHT22;9716;53.114;18.040;2023-02-24T01:12:10;7.80;99.90
19168;DHT22;9716;53.114;18.040;2023-02-24T01:15:06;7.80;99.90
19168;DHT22;9716;53.114;18.040;2023-02-24T01:17:36;7.80;99.90
19168;DHT22;9716;53.114;18.040;2023-02-24T01:20:06;7.80;99.90
19168;DHT22;9716;53.114;18.040;2023-02-24T01:22:43;7.80;99.90
19168;DHT22;9716;53.114;18.040;2023-02-24T01:25:12;7.80;99.90
19168;DHT22;9716;53.114;18.040;2023-02-24T01:27:42;7.80;99.90
19168;DHT22;9716;53.114;18.040;2023-02-24T01:30:11;7.80;99.90
19168;DHT22;9716;53.114;18.040;2023-02-24T01:32:43;7.80;99.90
19168;DHT22;9716;53.114;18.040;2023-02-24T01:35:13;7.80;99.90
19168;DHT22;9716;53.114;18.040;2023-02-24T01:37:43;7.80;99.90
19168;DHT22;9716;53.114;18.040;2023-02-24T01:40:13;7.80;99.90
19168;DHT22;9716;53.114;18.040;2023-02-24T01:42:49;7.80;99.90
19168;DHT22;9716;53.114;18.040;2023-02-24T01:45:21;7.80;99.90
19168;DHT22;9716;53.114;18.040;2023-02-24T01:47:51;7.80;99.90
19168;DHT22;9716;53.114;18.040;2023-02-24T01:50:21;7.80;99.90
19168;DHT22;9716;53.114;18.040;2023-02-24T01:52:55;7.80;99.90
19168;DHT22;9716;53.114;18.040;2023-02-24T01:55:28;7.80;99.90
19168;DHT22;9716;53.114;18.040;2023-02-24T01:58:04;7.80;99.90
19168;DHT22;9716;53.114;18.040;2023-02-24T02:00:34;7.80;99.90
19168;DHT22;9716;53.114;18.040;2023-02-24T02:03:22;7.80;99.90
19168;DHT22;9716;53.114;18.040;2023-02-24T02:05:53;7.80;99.90
19168;DHT22;9716;53.114;18.040;2023-02-24T02:08:23;7.70;99.90
19168;DHT22;9716;53.114;18.040;2023-02-24T02:10:52;7.70;99.90
19168;DHT22;9716;53.114;18.040;2023-02-24T02:13:27;7.70;99.90
19168;DHT22;9716;53.114;18.040;2023-02-24T02:18:51;7.70;99.90
19168;DHT22;9716;53.114;18.040;2023-02-24T02:24:38;7.60;99.90
19168;DHT22;9716;53.114;18.040;2023-02-24T02:27:27;7.60;99.90
19168;DHT22;9716;53.114;18.040;2023-02-24T02:30:27;7.60;99.90
19168;DHT22;9716;53.114;18.040;2023-02-24T02:33:22;7.60;99.90
19168;DHT22;9716;53.114;18.040;2023-02-24T02:35:58;7.60;99.90
19168;DHT22;9716;53.114;18.040;2023-02-24T02:38:36;7.60;99.90
19168;DHT22;9716;53.114;18.040;2023-02-24T02:41:18;7.60;99.90
19168;DHT22;9716;53.114;18.040;2023-02-24T02:43:51;7.60;99.90
19168;DHT22;9716;53.114;18.040;2023-02-24T02:46:27;7.60;99.90
19168;DHT22;9716;53.114;18.040;2023-02-24T02:49:11;7.60;99.90
19168;DHT22;9716;53.114;18.040;2023-02-24T02:51:46;7.60;99.90
19168;DHT22;9716;53.114;18.040;2023-02-24T02:54:23;7.60;99.90
19168;DHT22;9716;53.114;18.040;2023-02-24T02:56:58;7.60;99.90
19168;DHT22;9716;53.114;18.040;2023-02-24T02:59:31;7.50;99.90
19168;DHT22;9716;53.114;18.040;2023-02-24T03:02:02;7.50;99.90
19168;DHT22;9716;53.114;18.040;2023-02-24T03:04:44;7.50;99.90
19168;DHT22;9716;53.114;18.040;2023-02-24T03:07:15;7.50;99.90
19168;DHT22;9716;53.114;18.040;2023-02-24T03:09:50;7.50;99.90
19168;DHT22;9716;53.114;18.040;2023-02-24T03:12:22;7.50;99.90
19168;DHT22;9716;53.114;18.040;2023-02-24T03:14:57;7.50;99.90
19168;DHT22;9716;53.114;18.040;2023-02-24T03:17:29;7.50;99.90
19168;DHT22;9716;53.114;18.040;2023-02-24T03:20:02;7.50;99.90
19168;DHT22;9716;53.114;18.040;2023-02-24T03:22:45;7.50;99.90
19168;DHT22;9716;53.114;18.040;2023-02-24T03:25:18;7.50;99.90
19168;DHT22;9716;53.114;18.040;2023-02-24T03:27:53;7.40;99.90
19168;DHT22;9716;53.114;18.040;2023-02-24T03:30:26;7.40;99.90
19168;DHT22;9716;53.114;18.040;2023-02-24T03:33:01;7.40;99.90
19168;DHT22;9716;53.114;18.040;2023-02-24T03:35:37;7.40;99.90
19168;DHT22;9716;53.114;18.040;2023-02-24T03:38:07;7.40;99.90
19168;DHT22;9716;53.114;18.040;2023-02-24T03:40:39;7.40;99.90
19168;DHT22;9716;53.114;18.040;2023-02-24T03:43:13;7.40;99.90
19168;DHT22;9716;53.114;18.040;2023-02-24T03:45:44;7.40;99.90
19168;DHT22;9716;53.114;18.040;2023-02-24T03:48:13;7.30;99.90
19168;DHT22;9716;53.114;18.040;2023-02-24T03:50:44;7.40;99.90
19168;DHT22;9716;53.114;18.040;2023-02-24T03:53:29;7.40;99.90
19168;DHT22;9716;53.114;18.040;2023-02-24T03:56:05;7.40;99.90
19168;DHT22;9716;53.114;18.040;2023-02-24T03:58:46;7.30;99.90
19168;DHT22;9716;53.114;18.040;2023-02-24T04:01:23;7.30;99.90
19168;DHT22;9716;53.114;18.040;2023-02-24T04:04:00;7.30;99.90
19168;DHT22;9716;53.114;18.040;2023-02-24T04:06:33;7.30;99.90
19168;DHT22;9716;53.114;18.040;2023-02-24T04:09:12;7.30;99.90
19168;DHT22;9716;53.114;18.040;2023-02-24T04:11:46;7.30;99.90
19168;DHT22;9716;53.114;18.040;2023-02-24T04:14:20;7.30;99.90
19168;DHT22;9716;53.114;18.040;2023-02-24T04:16:55;7.30;99.90
19168;DHT22;9716;53.114;18.040;2023-02-24T04:19:30;7.30;99.90
19168;DHT22;9716;53.114;18.040;2023-02-24T04:22:00;7.20;99.90
19168;DHT22;9716;53.114;18.040;2023-02-24T04:24:31;7.20;99.90
19168;DHT22;9716;53.114;18.040;2023-02-24T04:27:03;7.20;99.90
19168;DHT22;9716;53.114;18.040;2023-02-24T04:29:35;7.20;99.90
19168;DHT22;9716;53.114;18.040;2023-02-24T04:32:08;7.20;99.90
19168;DHT22;9716;53.114;18.040;2023-02-24T04:34:39;7.10;99.90
19168;DHT22;9716;53.114;18.040;2023-02-24T04:37:08;7.10;99.90
19168;DHT22;9716;53.114;18.040;2023-02-24T04:39:38;7.10;99.90
19168;DHT22;9716;53.114;18.040;2023-02-24T04:42:06;7.10;99.90
19168;DHT22;9716;53.114;18.040;2023-02-24T04:44:36;7.10;99.90
19168;DHT22;9716;53.114;18.040;2023-02-24T04:47:05;7.10;99.90
19168;DHT22;9716;53.114;18.040;2023-02-24T04:49:35;7.10;99.90
19168;DHT22;9716;53.114;18.040;2023-02-24T04:52:07;7.00;99.90
19168;DHT22;9716;53.114;18.040;2023-02-24T04:54:38;7.00;99.90
19168;DHT22;9716;53.114;18.040;2023-02-24T04:57:06;7.00;99.90
19168;DHT22;9716;53.114;18.040;2023-02-24T04:59:36;7.00;99.90
19168;DHT22;9716;53.114;18.040;2023-02-24T05:02:04;7.10;99.90
19168;DHT22;9716;53.114;18.040;2023-02-24T05:04:34;7.00;99.90
19168;DHT22;9716;53.114;18.040;2023-02-24T05:07:05;7.00;99.90
19168;DHT22;9716;53.114;18.040;2023-02-24T05:09:33;7.00;99.90
19168;DHT22;9716;53.114;18.040;2023-02-24T05:12:04;7.00;99.90
19168;DHT22;9716;53.114;18.040;2023-02-24T05:14:35;7.00;99.90
19168;DHT22;9716;53.114;18.040;2023-02-24T05:17:05;7.00;99.90
19168;DHT22;9716;53.114;18.040;2023-02-24T05:19:33;7.00;99.90
19168;DHT22;9716;53.114;18.040;2023-02-24T05:22:34;7.00;99.90
19168;DHT22;9716;53.114;18.040;2023-02-24T05:25:02;7.00;99.90
19168;DHT22;9716;53.114;18.040;2023-02-24T05:27:33;7.00;99.90
19168;DHT22;9716;53.114;18.040;2023-02-24T05:30:06;7.00;99.90
19168;DHT22;9716;53.114;18.040;2023-02-24T05:32:36;7.00;99.90
19168;DHT22;9716;53.114;18.040;2023-02-24T05:35:05;7.00;99.90
19168;DHT22;9716;53.114;18.040;2023-02-24T05:37:36;7.00;99.90
19168;DHT22;9716;53.114;18.040;2023-02-24T05:40:09;7.00;99.90
19168;DHT22;9716;53.114;18.040;2023-02-24T05:42:42;7.00;99.90
19168;DHT22;9716;53.114;18.040;2023-02-24T05:45:11;7.00;99.90
19168;DHT22;9716;53.114;18.040;2023-02-24T05:47:39;6.90;99.90
19168;DHT22;9716;53.114;18.040;2023-02-24T05:50:12;6.90;99.90
19168;DHT22;9716;53.114;18.040;2023-02-24T05:52:41;6.90;99.90
19168;DHT22;9716;53.114;18.040;2023-02-24T05:55:12;6.90;99.90
19168;DHT22;9716;53.114;18.040;2023-02-24T05:57:42;6.90;99.90
19168;DHT22;9716;53.114;18.040;2023-02-24T06:00:11;6.80;99.90
19168;DHT22;9716;53.114;18.040;2023-02-24T06:02:42;6.80;99.90
19168;DHT22;9716;53.114;18.040;2023-02-24T06:05:17;6.80;99.90
19168;DHT22;9716;53.114;18.040;2023-02-24T06:07:56;6.80;99.90
19168;DHT22;9716;53.114;18.040;2023-02-24T06:10:31;6.80;99.90
19168;DHT22;9716;53.114;18.040;2023-02-24T06:13:02;6.70;99.90
19168;DHT22;9716;53.114;18.040;2023-02-24T06:15:32;6.80;99.90
19168;DHT22;9716;53.114;18.040;2023-02-24T06:18:01;6.80;99.90
19168;DHT22;9716;53.114;18.040;2023-02-24T06:20:29;6.80;99.90
19168;DHT22;9716;53.114;18.040;2023-02-24T06:22:59;6.70;99.90
19168;DHT22;9716;53.114;18.040;2023-02-24T06:25:28;6.80;99.90
19168;DHT22;9716;53.114;18.040;2023-02-24T06:27:59;6.70;99.90
19168;DHT22;9716;53.114;18.040;2023-02-24T06:30:29;6.70;99.90
19168;DHT22;9716;53.114;18.040;2023-02-24T06:32:59;6.70;99.90
19168;DHT22;9716;53.114;18.040;2023-02-24T06:35:27;6.60;99.90
19168;DHT22;9716;53.114;18.040;2023-02-24T06:37:55;6.60;99.90
19168;DHT22;9716;53.114;18.040;2023-02-24T06:40:24;6.60;99.90
19168;DHT22;9716;53.114;18.040;2023-02-24T06:42:52;6.60;99.90
19168;DHT22;9716;53.114;18.040;2023-02-24T06:45:22;6.60;99.90
19168;DHT22;9716;53.114;18.040;2023-02-24T06:47:53;6.50;99.90
19168;DHT22;9716;53.114;18.040;2023-02-24T06:50:22;6.60;99.90
19168;DHT22;9716;53.114;18.040;2023-02-24T06:52:54;6.50;99.90
19168;DHT22;9716;53.114;18.040;2023-02-24T06:55:24;6.50;99.90
19168;DHT22;9716;53.114;18.040;2023-02-24T06:57:54;6.50;99.90
19168;DHT22;9716;53.114;18.040;2023-02-24T07:00:28;6.50;99.90
19168;DHT22;9716;53.114;18.040;2023-02-24T07:03:08;6.60;99.90
19168;DHT22;9716;53.114;18.040;2023-02-24T07:05:43;6.60;99.90
19168;DHT22;9716;53.114;18.040;2023-02-24T07:08:17;6.60;99.90
19168;DHT22;9716;53.114;18.040;2023-02-24T07:10:51;6.60;99.90
19168;DHT22;9716;53.114;18.040;2023-02-24T07:13:21;6.60;99.90
19168;DHT22;9716;53.114;18.040;2023-02-24T07:15:50;6.60;99.90
19168;DHT22;9716;53.114;18.040;2023-02-24T07:18:20;6.60;99.90
19168;DHT22;9716;53.114;18.040;2023-02-24T07:20:55;6.60;99.90
19168;DHT22;9716;53.114;18.040;2023-02-24T07:23:31;6.60;99.90
19168;DHT22;9716;53.114;18.040;2023-02-24T07:26:00;6.60;99.90
19168;DHT22;9716;53.114;18.040;2023-02-24T07:28:36;6.60;99.90
19168;DHT22;9716;53.114;18.040;2023-02-24T07:31:23;6.50;99.90
19168;DHT22;9716;53.114;18.040;2023-02-24T07:33:55;6.50;99.90
19168;DHT22;9716;53.114;18.040;2023-02-24T07:36:23;6.50;99.90
19168;DHT22;9716;53.114;18.040;2023-02-24T07:38:57;6.30;99.90
19168;DHT22;9716;53.114;18.040;2023-02-24T07:41:27;6.40;99.90
19168;DHT22;9716;53.114;18.040;2023-02-24T07:43:57;6.40;99.90
19168;DHT22;9716;53.114;18.040;2023-02-24T07:46:29;6.30;99.90
19168;DHT22;9716;53.114;18.040;2023-02-24T07:49:00;6.30;99.90
19168;DHT22;9716;53.114;18.040;2023-02-24T07:51:30;6.30;99.90
19168;DHT22;9716;53.114;18.040;2023-02-24T07:53:59;6.30;99.90
19168;DHT22;9716;53.114;18.040;2023-02-24T07:56:30;6.20;99.90
19168;DHT22;9716;53.114;18.040;2023-02-24T07:59:00;6.20;99.90
19168;DHT22;9716;53.114;18.040;2023-02-24T08:01:33;6.20;99.90
19168;DHT22;9716;53.114;18.040;2023-02-24T08:04:08;6.10;99.90
19168;DHT22;9716;53.114;18.040;2023-02-24T08:06:40;6.10;99.90
19168;DHT22;9716;53.114;18.040;2023-02-24T08:09:15;6.10;99.90
19168;DHT22;9716;53.114;18.040;2023-02-24T08:11:46;6.10;99.90
19168;DHT22;9716;53.114;18.040;2023-02-24T08:14:19;6.00;99.90
19168;DHT22;9716;53.114;18.040;2023-02-24T08:16:51;6.00;99.90
19168;DHT22;9716;53.114;18.040;2023-02-24T08:19:28;6.00;99.90
19168;DHT22;9716;53.114;18.040;2023-02-24T08:22:00;6.00;99.90
19168;DHT22;9716;53.114;18.040;2023-02-24T08:24:45;6.00;99.90
19168;DHT22;9716;53.114;18.040;2023-02-24T08:27:16;6.00;99.90
19168;DHT22;9716;53.114;18.040;2023-02-24T08:29:47;6.10;99.90
19168;DHT22;9716;53.114;18.040;2023-02-24T08:32:29;6.10;99.90
19168;DHT22;9716;53.114;18.040;2023-02-24T08:35:03;6.20;99.90
19168;DHT22;9716;53.114;18.040;2023-02-24T08:37:33;6.20;99.90
19168;DHT22;9716;53.114;18.040;2023-02-24T08:40:08;6.30;99.90
19168;DHT22;9716;53.114;18.040;2023-02-24T08:42:56;6.30;99.90
19168;DHT22;9716;53.114;18.040;2023-02-24T08:45:26;6.40;99.90
19168;DHT22;9716;53.114;18.040;2023-02-24T08:47:59;6.40;99.90
19168;DHT22;9716;53.114;18.040;2023-02-24T08:50:41;6.40;99.90
19168;DHT22;9716;53.114;18.040;2023-02-24T08:53:12;6.50;99.90
19168;DHT22;9716;53.114;18.040;2023-02-24T08:55:45;6.50;99.90
19168;DHT22;9716;53.114;18.040;2023-02-24T08:58:18;6.40;99.90
19168;DHT22;9716;53.114;18.040;2023-02-24T09:00:53;6.40;99.90
19168;DHT22;9716;53.114;18.040;2023-02-24T09:03:25;6.40;99.90
19168;DHT22;9716;53.114;18.040;2023-02-24T09:06:03;6.40;99.90
19168;DHT22;9716;53.114;18.040;2023-02-24T09:08:33;6.40;99.90
19168;DHT22;9716;53.114;18.040;2023-02-24T09:11:06;6.50;99.90
19168;DHT22;9716;53.114;18.040;2023-02-24T09:13:35;6.60;99.90
19168;DHT22;9716;53.114;18.040;2023-02-24T09:16:09;6.70;99.90
19168;DHT22;9716;53.114;18.040;2023-02-24T09:18:42;6.80;99.90
19168;DHT22;9716;53.114;18.040;2023-02-24T09:21:13;6.80;99.90
19168;DHT22;9716;53.114;18.040;2023-02-24T09:23:58;6.90;99.90
19168;DHT22;9716;53.114;18.040;2023-02-24T09:26:29;6.90;99.90
19168;DHT22;9716;53.114;18.040;2023-02-24T09:29:09;7.00;99.90
19168;DHT22;9716;53.114;18.040;2023-02-24T09:32:00;7.00;99.90
19168;DHT22;9716;53.114;18.040;2023-02-24T09:34:32;7.00;99.90
19168;DHT22;9716;53.114;18.040;2023-02-24T09:37:03;7.00;99.90
19168;DHT22;9716;53.114;18.040;2023-02-24T09:39:33;7.10;99.90
19168;DHT22;9716;53.114;18.040;2023-02-24T09:42:28;7.10;99.90
19168;DHT22;9716;53.114;18.040;2023-02-24T09:45:08;7.20;99.90
19168;DHT22;9716;53.114;18.040;2023-02-24T09:47:42;7.20;99.90
19168;DHT22;9716;53.114;18.040;2023-02-24T09:50:28;7.20;99.90
19168;DHT22;9716;53.114;18.040;2023-02-24T09:53:33;7.20;99.90
19168;DHT22;9716;53.114;18.040;2023-02-24T09:56:15;7.10;99.90
19168;DHT22;9716;53.114;18.040;2023-02-24T09:58:52;7.10;99.90
19168;DHT22;9716;53.114;18.040;2023-02-24T10:01:36;7.00;99.90
19168;DHT22;9716;53.114;18.040;2023-02-24T10:04:28;6.90;99.90
19168;DHT22;9716;53.114;18.040;2023-02-24T10:07:04;6.80;99.90
19168;DHT22;9716;53.114;18.040;2023-02-24T10:09:40;6.80;99.90
19168;DHT22;9716;53.114;18.040;2023-02-24T10:12:21;6.70;99.90
19168;DHT22;9716;53.114;18.040;2023-02-24T10:14:55;6.70;99.90
19168;DHT22;9716;53.114;18.040;2023-02-24T10:17:49;6.70;99.90
19168;DHT22;9716;53.114;18.040;2023-02-24T10:20:21;6.70;99.90
19168;DHT22;9716;53.114;18.040;2023-02-24T10:23:09;6.70;99.90
19168;DHT22;9716;53.114;18.040;2023-02-24T10:25:46;6.80;99.90
19168;DHT22;9716;53.114;18.040;2023-02-24T10:28:26;6.80;99.90
19168;DHT22;9716;53.114;18.040;2023-02-24T10:31:08;6.90;99.90
19168;DHT22;9716;53.114;18.040;2023-02-24T10:33:50;6.90;99.90
19168;DHT22;9716;53.114;18.040;2023-02-24T10:36:21;6.90;99.90
19168;DHT22;9716;53.114;18.040;2023-02-24T10:38:56;6.90;99.90
19168;DHT22;9716;53.114;18.040;2023-02-24T10:41:43;6.80;99.90
19168;DHT22;9716;53.114;18.040;2023-02-24T10:44:20;6.90;99.90
19168;DHT22;9716;53.114;18.040;2023-02-24T10:47:01;6.90;99.90
19168;DHT22;9716;53.114;18.040;2023-02-24T10:49:41;6.90;99.90
19168;DHT22;9716;53.114;18.040;2023-02-24T10:52:25;6.90;99.90
19168;DHT22;9716;53.114;18.040;2023-02-24T10:55:24;6.80;99.90
19168;DHT22;9716;53.114;18.040;2023-02-24T10:58:10;6.80;99.90
19168;DHT22;9716;53.114;18.040;2023-02-24T11:00:44;6.80;99.90
19168;DHT22;9716;53.114;18.040;2023-02-24T11:03:28;6.80;99.90
19168;DHT22;9716;53.114;18.040;2023-02-24T11:06:18;6.70;99.90
19168;DHT22;9716;53.114;18.040;2023-02-24T11:08:58;6.70;99.90
19168;DHT22;9716;53.114;18.040;2023-02-24T11:11:46;6.70;99.90
19168;DHT22;9716;53.114;18.040;2023-02-24T11:14:38;6.80;99.90
19168;DHT22;9716;53.114;18.040;2023-02-24T11:17:24;6.80;99.90
19168;DHT22;9716;53.114;18.040;2023-02-24T11:19:56;6.80;99.90
19168;DHT22;9716;53.114;18.040;2023-02-24T11:22:31;6.70;99.90
19168;DHT22;9716;53.114;18.040;2023-02-24T11:25:04;6.70;99.90
19168;DHT22;9716;53.114;18.040;2023-02-24T11:27:34;6.60;99.90
19168;DHT22;9716;53.114;18.040;2023-02-24T11:30:14;6.60;99.90
19168;DHT22;9716;53.114;18.040;2023-02-24T11:32:54;6.60;99.90
19168;DHT22;9716;53.114;18.040;2023-02-24T11:35:32;6.50;99.90
19168;DHT22;9716;53.114;18.040;2023-02-24T11:38:14;6.50;99.90
19168;DHT22;9716;53.114;18.040;2023-02-24T11:40:47;6.60;99.90
19168;DHT22;9716;53.114;18.040;2023-02-24T11:43:24;6.50;99.90
19168;DHT22;9716;53.114;18.040;2023-02-24T11:45:59;6.50;99.90
19168;DHT22;9716;53.114;18.040;2023-02-24T11:48:34;6.50;99.90
19168;DHT22;9716;53.114;18.040;2023-02-24T11:51:08;6.50;99.90
19168;DHT22;9716;53.114;18.040;2023-02-24T11:53:42;6.50;99.90
19168;DHT22;9716;53.114;18.040;2023-02-24T11:56:15;6.50;99.90
19168;DHT22;9716;53.114;18.040;2023-02-24T11:58:49;6.50;99.90
19168;DHT22;9716;53.114;18.040;2023-02-24T12:01:24;6.50;99.90
19168;DHT22;9716;53.114;18.040;2023-02-24T12:04:02;6.50;99.90
19168;DHT22;9716;53.114;18.040;2023-02-24T12:06:36;6.50;99.90
19168;DHT22;9716;53.114;18.040;2023-02-24T12:09:11;6.50;99.90
19168;DHT22;9716;53.114;18.040;2023-02-24T12:11:47;6.40;99.90
19168;DHT22;9716;53.114;18.040;2023-02-24T12:14:32;6.40;99.90
19168;DHT22;9716;53.114;18.040;2023-02-24T12:17:11;6.40;99.90
19168;DHT22;9716;53.114;18.040;2023-02-24T12:19:58;6.40;99.90
19168;DHT22;9716;53.114;18.040;2023-02-24T12:22:32;6.40;99.90
19168;DHT22;9716;53.114;18.040;2023-02-24T12:25:10;6.50;99.90
19168;DHT22;9716;53.114;18.040;2023-02-24T12:27:50;6.50;99.90
19168;DHT22;9716;53.114;18.040;2023-02-24T12:30:38;6.50;99.90
19168;DHT22;9716;53.114;18.040;2023-02-24T12:33:29;6.50;99.90
19168;DHT22;9716;53.114;18.040;2023-02-24T12:36:07;6.40;99.90
19168;DHT22;9716;53.114;18.040;2023-02-24T12:38:49;6.40;99.90
19168;DHT22;9716;53.114;18.040;2023-02-24T12:41:32;6.40;99.90
19168;DHT22;9716;53.114;18.040;2023-02-24T12:44:12;6.40;99.90
19168;DHT22;9716;53.114;18.040;2023-02-24T12:46:45;6.40;99.90
19168;DHT22;9716;53.114;18.040;2023-02-24T12:49:44;6.40;99.90
19168;DHT22;9716;53.114;18.040;2023-02-24T12:52:21;6.40;99.90
19168;DHT22;9716;53.114;18.040;2023-02-24T12:54:56;6.40;99.90
19168;DHT22;9716;53.114;18.040;2023-02-24T12:57:33;6.40;99.90
19168;DHT22;9716;53.114;18.040;2023-02-24T13:00:09;6.40;99.90
19168;DHT22;9716;53.114;18.040;2023-02-24T13:02:46;6.50;99.90
19168;DHT22;9716;53.114;18.040;2023-02-24T13:05:23;6.60;99.90
19168;DHT22;9716;53.114;18.040;2023-02-24T13:08:17;6.60;99.90
19168;DHT22;9716;53.114;18.040;2023-02-24T13:10:57;6.70;99.90
19168;DHT22;9716;53.114;18.040;2023-02-24T13:13:33;6.90;99.90
19168;DHT22;9716;53.114;18.040;2023-02-24T13:16:05;7.00;99.90
19168;DHT22;9716;53.114;18.040;2023-02-24T13:18:35;7.00;99.90
19168;DHT22;9716;53.114;18.040;2023-02-24T13:21:17;7.00;99.90
19168;DHT22;9716;53.114;18.040;2023-02-24T13:23:53;7.00;99.90
19168;DHT22;9716;53.114;18.040;2023-02-24T13:26:25;7.00;99.90
19168;DHT22;9716;53.114;18.040;2023-02-24T13:29:02;6.90;99.90
19168;DHT22;9716;53.114;18.040;2023-02-24T13:31:40;6.90;99.90
19168;DHT22;9716;53.114;18.040;2023-02-24T13:34:26;6.80;99.90
19168;DHT22;9716;53.114;18.040;2023-02-24T13:36:57;6.80;99.90
19168;DHT22;9716;53.114;18.040;2023-02-24T13:39:32;6.80;99.90
19168;DHT22;9716;53.114;18.040;2023-02-24T13:42:03;6.80;99.90
19168;DHT22;9716;53.114;18.040;2023-02-24T13:44:32;6.80;99.90
19168;DHT22;9716;53.114;18.040;2023-02-24T13:47:28;6.80;99.90
19168;DHT22;9716;53.114;18.040;2023-02-24T13:50:18;6.80;99.90
19168;DHT22;9716;53.114;18.040;2023-02-24T13:53:11;6.90;99.90
19168;DHT22;9716;53.114;18.040;2023-02-24T13:55:54;6.90;99.90
19168;DHT22;9716;53.114;18.040;2023-02-24T13:58:44;6.90;99.90
19168;DHT22;9716;53.114;18.040;2023-02-24T14:01:17;6.90;99.90
19168;DHT22;9716;53.114;18.040;2023-02-24T14:04:02;6.90;99.90
19168;DHT22;9716;53.114;18.040;2023-02-24T14:06:31;6.80;99.90
19168;DHT22;9716;53.114;18.040;2023-02-24T14:09:02;6.80;99.90
19168;DHT22;9716;53.114;18.040;2023-02-24T14:11:34;6.80;99.90
19168;DHT22;9716;53.114;18.040;2023-02-24T14:14:03;6.80;99.90
19168;DHT22;9716;53.114;18.040;2023-02-24T14:16:34;6.80;99.90
19168;DHT22;9716;53.114;18.040;2023-02-24T14:19:11;6.80;99.90
19168;DHT22;9716;53.114;18.040;2023-02-24T14:21:47;6.70;99.90
19168;DHT22;9716;53.114;18.040;2023-02-24T14:24:19;6.70;99.90
19168;DHT22;9716;53.114;18.040;2023-02-24T14:26:49;6.80;99.90
19168;DHT22;9716;53.114;18.040;2023-02-24T14:29:21;6.70;99.90
19168;DHT22;9716;53.114;18.040;2023-02-24T14:31:51;6.70;99.90
19168;DHT22;9716;53.114;18.040;2023-02-24T14:34:22;6.70;99.90
19168;DHT22;9716;53.114;18.040;2023-02-24T14:36:53;6.70;99.90
19168;DHT22;9716;53.114;18.040;2023-02-24T14:39:24;6.70;99.90
19168;DHT22;9716;53.114;18.040;2023-02-24T14:42:08;6.70;99.90
19168;DHT22;9716;53.114;18.040;2023-02-24T14:44:40;6.70;99.90
19168;DHT22;9716;53.114;18.040;2023-02-24T14:47:10;6.70;99.90
19168;DHT22;9716;53.114;18.040;2023-02-24T14:49:41;6.70;99.90
19168;DHT22;9716;53.114;18.040;2023-02-24T14:52:31;6.60;99.90
19168;DHT22;9716;53.114;18.040;2023-02-24T14:55:05;6.60;99.90
19168;DHT22;9716;53.114;18.040;2023-02-24T14:57:37;6.60;99.90
19168;DHT22;9716;53.114;18.040;2023-02-24T15:00:13;6.60;99.90
19168;DHT22;9716;53.114;18.040;2023-02-24T15:02:52;6.60;99.90
19168;DHT22;9716;53.114;18.040;2023-02-24T15:05:22;6.70;99.90
19168;DHT22;9716;53.114;18.040;2023-02-24T15:07:50;6.80;99.90
19168;DHT22;9716;53.114;18.040;2023-02-24T15:10:23;6.90;99.90
19168;DHT22;9716;53.114;18.040;2023-02-24T15:12:55;7.00;99.90
19168;DHT22;9716;53.114;18.040;2023-02-24T15:15:29;7.10;99.90
19168;DHT22;9716;53.114;18.040;2023-02-24T15:18:09;7.20;99.90
19168;DHT22;9716;53.114;18.040;2023-02-24T15:20:39;7.30;99.90
19168;DHT22;9716;53.114;18.040;2023-02-24T15:23:24;7.40;99.90
19168;DHT22;9716;53.114;18.040;2023-02-24T15:25:57;7.50;99.90
19168;DHT22;9716;53.114;18.040;2023-02-24T15:28:38;7.60;99.90
19168;DHT22;9716;53.114;18.040;2023-02-24T15:31:16;7.70;99.90
19168;DHT22;9716;53.114;18.040;2023-02-24T15:33:53;7.70;99.90
19168;DHT22;9716;53.114;18.040;2023-02-24T15:36:26;7.80;99.90
19168;DHT22;9716;53.114;18.040;2023-02-24T15:39:07;7.80;99.90
19168;DHT22;9716;53.114;18.040;2023-02-24T15:41:39;7.70;99.90
19168;DHT22;9716;53.114;18.040;2023-02-24T15:44:25;7.70;99.90
19168;DHT22;9716;53.114;18.040;2023-02-24T15:47:15;7.70;99.90
19168;DHT22;9716;53.114;18.040;2023-02-24T15:49:47;7.70;99.90
19168;DHT22;9716;53.114;18.040;2023-02-24T15:52:23;7.70;99.90
19168;DHT22;9716;53.114;18.040;2023-02-24T15:54:53;7.60;99.90
19168;DHT22;9716;53.114;18.040;2023-02-24T15:57:24;7.60;99.90
19168;DHT22;9716;53.114;18.040;2023-02-24T15:59:53;7.50;99.90
19168;DHT22;9716;53.114;18.040;2023-02-24T16:02:22;7.40;99.90
19168;DHT22;9716;53.114;18.040;2023-02-24T16:04:51;7.40;99.90
19168;DHT22;9716;53.114;18.040;2023-02-24T16:07:23;7.30;99.90
19168;DHT22;9716;53.114;18.040;2023-02-24T16:09:53;7.30;99.90
19168;DHT22;9716;53.114;18.040;2023-02-24T16:12:27;7.20;99.90
19168;DHT22;9716;53.114;18.040;2023-02-24T16:14:58;7.10;99.90
19168;DHT22;9716;53.114;18.040;2023-02-24T16:17:31;7.10;99.90
19168;DHT22;9716;53.114;18.040;2023-02-24T16:20:01;7.00;99.90
19168;DHT22;9716;53.114;18.040;2023-02-24T16:22:35;7.00;99.90
19168;DHT22;9716;53.114;18.040;2023-02-24T16:25:04;7.00;99.90
19168;DHT22;9716;53.114;18.040;2023-02-24T16:27:35;7.00;99.90
19168;DHT22;9716;53.114;18.040;2023-02-24T16:30:04;6.90;99.90
19168;DHT22;9716;53.114;18.040;2023-02-24T16:32:33;6.90;99.90
19168;DHT22;9716;53.114;18.040;2023-02-24T16:35:01;6.90;99.90
19168;DHT22;9716;53.114;18.040;2023-02-24T16:37:30;6.90;99.90
19168;DHT22;9716;53.114;18.040;2023-02-24T16:39:58;6.90;99.90